sensor_id;sensor_type;location;lat;lon;timestamp;pressure;altitude;pressure_sealevel;temperature;humidity
66801;BME280;53703;50.326;19.122;2023-03-26T00:01:37;97700.81;;;18.71;38.83
66801;BME280;53703;50.326;19.122;2023-03-26T00:04:32;97704.70;;;18.79;38.85
66801;BME280;53703;50.326;19.122;2023-03-26T00:07:26;97704.72;;;18.81;39.06
66801;BME280;53703;50.326;19.122;2023-03-26T00:10:20;97705.09;;;18.94;38.89
66801;BME280;53703;50.326;19.122;2023-03-26T00:13:14;97704.31;;;18.87;39.21
66801;BME280;53703;50.326;19.122;2023-03-26T00:16:18;97711.70;;;18.83;39.41
66801;BME280;53703;50.326;19.122;2023-03-26T00:19:33;97709.83;;;18.79;39.50
66801;BME280;53703;50.326;19.122;2023-03-26T00:22:29;97712.67;;;18.86;39.61
66801;BME280;53703;50.326;19.122;2023-03-26T00:25:23;97708.77;;;18.91;39.55
66801;BME280;53703;50.326;19.122;2023-03-26T00:28:18;97709.84;;;18.87;39.76
66801;BME280;53703;50.326;19.122;2023-03-26T00:31:15;97705.64;;;18.87;39.80
66801;BME280;53703;50.326;19.122;2023-03-26T00:34:09;97693.95;;;18.86;40.02
66801;BME280;53703;50.326;19.122;2023-03-26T00:37:03;97694.99;;;18.80;39.69
66801;BME280;53703;50.326;19.122;2023-03-26T00:39:57;97686.05;;;18.71;40.10
66801;BME280;53703;50.326;19.122;2023-03-26T00:42:56;97694.02;;;18.77;40.17
66801;BME280;53703;50.326;19.122;2023-03-26T00:45:52;97696.72;;;18.80;40.11
66801;BME280;53703;50.326;19.122;2023-03-26T00:48:47;97699.95;;;18.79;40.13
66801;BME280;53703;50.326;19.122;2023-03-26T00:51:43;97700.99;;;18.80;40.25
66801;BME280;53703;50.326;19.122;2023-03-26T00:54:37;97695.92;;;18.79;40.21
66801;BME280;53703;50.326;19.122;2023-03-26T00:57:31;97689.04;;;18.77;40.27
66801;BME280;53703;50.326;19.122;2023-03-26T01:00:33;97683.67;;;18.78;40.32
66801;BME280;53703;50.326;19.122;2023-03-26T01:03:30;97675.84;;;18.82;40.32
66801;BME280;53703;50.326;19.122;2023-03-26T01:06:28;97676.50;;;18.78;40.35
66801;BME280;53703;50.326;19.122;2023-03-26T01:09:33;97676.33;;;18.78;40.38
66801;BME280;53703;50.326;19.122;2023-03-26T01:12:34;97669.89;;;18.74;40.36
66801;BME280;53703;50.326;19.122;2023-03-26T01:15:28;97663.04;;;18.75;40.63
66801;BME280;53703;50.326;19.122;2023-03-26T01:18:24;97661.98;;;18.73;40.54
66801;BME280;53703;50.326;19.122;2023-03-26T01:21:24;97670.48;;;18.69;40.42
66801;BME280;53703;50.326;19.122;2023-03-26T01:24:22;97665.27;;;18.70;40.58
66801;BME280;53703;50.326;19.122;2023-03-26T01:27:27;97666.69;;;18.70;40.50
66801;BME280;53703;50.326;19.122;2023-03-26T01:30:32;97666.59;;;18.68;40.65
66801;BME280;53703;50.326;19.122;2023-03-26T01:33:53;97657.88;;;18.66;40.11
66801;BME280;53703;50.326;19.122;2023-03-26T01:36:54;97654.23;;;18.62;40.10
66801;BME280;53703;50.326;19.122;2023-03-26T01:39:55;97658.11;;;18.64;40.63
66801;BME280;53703;50.326;19.122;2023-03-26T01:43:06;97660.96;;;18.66;40.81
66801;BME280;53703;50.326;19.122;2023-03-26T01:46:04;97657.80;;;18.65;40.86
66801;BME280;53703;50.326;19.122;2023-03-26T01:48:59;97657.23;;;18.64;40.90
66801;BME280;53703;50.326;19.122;2023-03-26T01:51:55;97655.18;;;18.64;40.79
66801;BME280;53703;50.326;19.122;2023-03-26T01:54:50;97658.86;;;18.62;40.80
66801;BME280;53703;50.326;19.122;2023-03-26T01:57:53;97655.45;;;18.60;40.71
66801;BME280;53703;50.326;19.122;2023-03-26T02:00:55;97651.13;;;18.56;40.56
66801;BME280;53703;50.326;19.122;2023-03-26T02:04:03;97652.80;;;18.56;40.68
66801;BME280;53703;50.326;19.122;2023-03-26T02:07:04;97652.02;;;18.49;40.36
66801;BME280;53703;50.326;19.122;2023-03-26T02:10:05;97649.86;;;18.48;40.69
66801;BME280;53703;50.326;19.122;2023-03-26T02:13:03;97655.71;;;18.48;40.33
66801;BME280;53703;50.326;19.122;2023-03-26T02:16:00;97647.85;;;18.44;40.05
66801;BME280;53703;50.326;19.122;2023-03-26T02:18:54;97650.08;;;18.37;40.18
66801;BME280;53703;50.326;19.122;2023-03-26T02:21:51;97647.88;;;18.39;40.10
66801;BME280;53703;50.326;19.122;2023-03-26T02:24:45;97654.52;;;18.39;40.10
66801;BME280;53703;50.326;19.122;2023-03-26T02:27:39;97650.98;;;18.42;40.30
66801;BME280;53703;50.326;19.122;2023-03-26T02:30:33;97654.63;;;18.42;40.36
66801;BME280;53703;50.326;19.122;2023-03-26T02:33:27;97656.75;;;18.42;40.10
66801;BME280;53703;50.326;19.122;2023-03-26T02:36:22;97655.45;;;18.32;40.27
66801;BME280;53703;50.326;19.122;2023-03-26T02:39:19;97655.48;;;18.36;40.08
66801;BME280;53703;50.326;19.122;2023-03-26T02:42:13;97656.07;;;18.38;40.47
66801;BME280;53703;50.326;19.122;2023-03-26T02:45:09;97656.87;;;18.39;40.31
66801;BME280;53703;50.326;19.122;2023-03-26T02:48:04;97650.17;;;18.40;39.93
66801;BME280;53703;50.326;19.122;2023-03-26T02:50:59;97646.96;;;18.35;40.12
66801;BME280;53703;50.326;19.122;2023-03-26T02:53:53;97634.62;;;18.32;39.89
66801;BME280;53703;50.326;19.122;2023-03-26T02:56:47;97632.88;;;18.32;39.58
66801;BME280;53703;50.326;19.122;2023-03-26T02:59:42;97634.57;;;18.28;39.64
66801;BME280;53703;50.326;19.122;2023-03-26T03:02:37;97632.67;;;18.28;39.49
66801;BME280;53703;50.326;19.122;2023-03-26T03:05:33;97625.02;;;18.33;39.61
66801;BME280;53703;50.326;19.122;2023-03-26T03:08:29;97621.77;;;18.27;40.20
66801;BME280;53703;50.326;19.122;2023-03-26T03:11:23;97623.15;;;18.30;39.90
66801;BME280;53703;50.326;19.122;2023-03-26T03:14:18;97621.02;;;18.31;40.05
66801;BME280;53703;50.326;19.122;2023-03-26T03:16:57;97622.89;;;18.28;39.94
66801;BME280;53703;50.326;19.122;2023-03-26T03:19:51;97629.11;;;18.26;40.32
66801;BME280;53703;50.326;19.122;2023-03-26T03:22:46;97632.42;;;18.27;40.43
66801;BME280;53703;50.326;19.122;2023-03-26T03:25:40;97629.82;;;18.27;40.49
66801;BME280;53703;50.326;19.122;2023-03-26T03:28:34;97629.13;;;18.28;40.46
66801;BME280;53703;50.326;19.122;2023-03-26T03:31:28;97620.06;;;18.23;40.22
66801;BME280;53703;50.326;19.122;2023-03-26T03:34:23;97621.13;;;18.25;40.56
66801;BME280;53703;50.326;19.122;2023-03-26T03:37:18;97618.27;;;18.24;40.51
66801;BME280;53703;50.326;19.122;2023-03-26T03:40:13;97621.34;;;18.23;40.71
66801;BME280;53703;50.326;19.122;2023-03-26T03:43:07;97621.14;;;18.20;40.67
66801;BME280;53703;50.326;19.122;2023-03-26T03:46:01;97621.59;;;18.18;40.71
66801;BME280;53703;50.326;19.122;2023-03-26T03:48:55;97617.53;;;18.22;40.34
66801;BME280;53703;50.326;19.122;2023-03-26T03:51:49;97616.16;;;18.18;40.55
66801;BME280;53703;50.326;19.122;2023-03-26T03:54:43;97623.70;;;18.23;40.71
66801;BME280;53703;50.326;19.122;2023-03-26T03:57:38;97625.42;;;18.21;40.82
66801;BME280;53703;50.326;19.122;2023-03-26T04:00:33;97630.23;;;18.21;40.93
66801;BME280;53703;50.326;19.122;2023-03-26T04:03:30;97632.94;;;18.16;40.91
66801;BME280;53703;50.326;19.122;2023-03-26T04:06:30;97634.07;;;18.19;41.11
66801;BME280;53703;50.326;19.122;2023-03-26T04:09:24;97638.77;;;18.22;40.51
66801;BME280;53703;50.326;19.122;2023-03-26T04:12:18;97639.44;;;18.26;40.57
66801;BME280;53703;50.326;19.122;2023-03-26T04:15:13;97641.19;;;18.33;40.37
66801;BME280;53703;50.326;19.122;2023-03-26T04:18:07;97636.48;;;18.38;40.81
66801;BME280;53703;50.326;19.122;2023-03-26T04:21:03;97634.76;;;18.30;40.67
66801;BME280;53703;50.326;19.122;2023-03-26T04:23:58;97641.05;;;18.23;40.40
66801;BME280;53703;50.326;19.122;2023-03-26T04:26:38;97639.05;;;18.26;40.31
66801;BME280;53703;50.326;19.122;2023-03-26T04:29:36;97636.55;;;18.28;40.34
66801;BME280;53703;50.326;19.122;2023-03-26T04:32:34;97633.45;;;18.26;40.29
66801;BME280;53703;50.326;19.122;2023-03-26T04:35:31;97632.73;;;18.33;40.39
66801;BME280;53703;50.326;19.122;2023-03-26T04:38:27;97629.84;;;18.29;40.80
66801;BME280;53703;50.326;19.122;2023-03-26T04:41:21;97632.34;;;18.32;40.92
66801;BME280;53703;50.326;19.122;2023-03-26T04:44:18;97633.89;;;18.23;41.22
66801;BME280;53703;50.326;19.122;2023-03-26T04:47:14;97638.82;;;18.20;41.18
66801;BME280;53703;50.326;19.122;2023-03-26T04:50:10;97636.56;;;18.45;40.43
66801;BME280;53703;50.326;19.122;2023-03-26T04:53:04;97634.98;;;18.24;41.01
66801;BME280;53703;50.326;19.122;2023-03-26T04:56:02;97633.73;;;18.17;41.02
66801;BME280;53703;50.326;19.122;2023-03-26T04:59:02;97631.02;;;18.15;41.17
66801;BME280;53703;50.326;19.122;2023-03-26T05:01:56;97629.46;;;18.10;40.95
66801;BME280;53703;50.326;19.122;2023-03-26T05:04:51;97632.31;;;18.11;41.26
66801;BME280;53703;50.326;19.122;2023-03-26T05:07:46;97631.94;;;18.07;40.86
66801;BME280;53703;50.326;19.122;2023-03-26T05:10:40;97624.60;;;18.02;40.49
66801;BME280;53703;50.326;19.122;2023-03-26T05:13:34;97621.08;;;18.04;40.55
66801;BME280;53703;50.326;19.122;2023-03-26T05:16:28;97622.52;;;17.99;40.85
66801;BME280;53703;50.326;19.122;2023-03-26T05:19:24;97620.77;;;17.98;40.69
66801;BME280;53703;50.326;19.122;2023-03-26T05:22:18;97624.17;;;17.99;40.68
66801;BME280;53703;50.326;19.122;2023-03-26T05:25:12;97627.83;;;18.00;40.88
66801;BME280;53703;50.326;19.122;2023-03-26T05:28:07;97626.66;;;18.02;40.91
66801;BME280;53703;50.326;19.122;2023-03-26T05:31:01;97625.41;;;17.98;40.87
66801;BME280;53703;50.326;19.122;2023-03-26T05:33:56;97628.52;;;18.00;40.71
66801;BME280;53703;50.326;19.122;2023-03-26T05:36:52;97625.95;;;17.97;40.34
66801;BME280;53703;50.326;19.122;2023-03-26T05:39:46;97627.60;;;17.95;40.83
66801;BME280;53703;50.326;19.122;2023-03-26T05:42:41;97623.41;;;17.95;40.76
66801;BME280;53703;50.326;19.122;2023-03-26T05:45:35;97621.59;;;17.95;40.99
66801;BME280;53703;50.326;19.122;2023-03-26T05:48:29;97619.56;;;17.91;40.42
66801;BME280;53703;50.326;19.122;2023-03-26T05:51:23;97625.75;;;17.93;40.70
66801;BME280;53703;50.326;19.122;2023-03-26T05:54:17;97630.98;;;17.94;40.49
66801;BME280;53703;50.326;19.122;2023-03-26T05:57:11;97623.18;;;17.90;40.58
66801;BME280;53703;50.326;19.122;2023-03-26T06:00:08;97627.20;;;17.90;40.59
66801;BME280;53703;50.326;19.122;2023-03-26T06:03:04;97623.33;;;17.89;40.12
66801;BME280;53703;50.326;19.122;2023-03-26T06:05:58;97635.40;;;17.89;39.95
66801;BME280;53703;50.326;19.122;2023-03-26T06:08:53;97639.05;;;17.86;39.73
66801;BME280;53703;50.326;19.122;2023-03-26T06:11:53;97642.61;;;17.80;40.16
66801;BME280;53703;50.326;19.122;2023-03-26T06:14:48;97644.66;;;17.79;40.38
66801;BME280;53703;50.326;19.122;2023-03-26T06:17:42;97640.70;;;17.85;40.09
66801;BME280;53703;50.326;19.122;2023-03-26T06:20:36;97638.51;;;17.80;40.07
66801;BME280;53703;50.326;19.122;2023-03-26T06:23:30;97638.80;;;17.78;39.69
66801;BME280;53703;50.326;19.122;2023-03-26T06:26:25;97639.84;;;17.80;39.74
66801;BME280;53703;50.326;19.122;2023-03-26T06:29:19;97638.04;;;17.76;39.75
66801;BME280;53703;50.326;19.122;2023-03-26T06:32:13;97639.61;;;17.75;39.46
66801;BME280;53703;50.326;19.122;2023-03-26T06:35:12;97641.39;;;17.72;39.40
66801;BME280;53703;50.326;19.122;2023-03-26T06:38:06;97647.94;;;17.67;39.53
66801;BME280;53703;50.326;19.122;2023-03-26T06:41:06;97645.25;;;17.62;39.72
66801;BME280;53703;50.326;19.122;2023-03-26T06:44:00;97643.66;;;17.66;39.53
66801;BME280;53703;50.326;19.122;2023-03-26T06:46:54;97639.59;;;17.62;39.91
66801;BME280;53703;50.326;19.122;2023-03-26T06:49:48;97637.38;;;17.67;39.89
66801;BME280;53703;50.326;19.122;2023-03-26T06:52:42;97636.74;;;17.61;39.50
66801;BME280;53703;50.326;19.122;2023-03-26T06:55:36;97637.33;;;17.59;39.60
66801;BME280;53703;50.326;19.122;2023-03-26T06:58:30;97636.06;;;17.53;39.57
66801;BME280;53703;50.326;19.122;2023-03-26T07:01:25;97635.36;;;17.52;39.58
66801;BME280;53703;50.326;19.122;2023-03-26T07:04:19;97639.45;;;17.58;39.38
66801;BME280;53703;50.326;19.122;2023-03-26T07:07:14;97643.49;;;17.49;39.68
66801;BME280;53703;50.326;19.122;2023-03-26T07:10:10;97642.85;;;17.53;39.26
66801;BME280;53703;50.326;19.122;2023-03-26T07:13:04;97645.34;;;17.52;39.26
66801;BME280;53703;50.326;19.122;2023-03-26T07:15:58;97643.42;;;17.50;39.22
66801;BME280;53703;50.326;19.122;2023-03-26T07:18:52;97642.63;;;17.49;39.16
66801;BME280;53703;50.326;19.122;2023-03-26T07:21:48;97640.80;;;17.53;39.47
66801;BME280;53703;50.326;19.122;2023-03-26T07:24:44;97640.37;;;17.50;39.28
66801;BME280;53703;50.326;19.122;2023-03-26T07:27:49;97640.09;;;17.52;39.38
66801;BME280;53703;50.326;19.122;2023-03-26T07:31:12;97645.06;;;17.48;39.72
66801;BME280;53703;50.326;19.122;2023-03-26T07:34:21;97646.95;;;17.48;39.16
66801;BME280;53703;50.326;19.122;2023-03-26T07:37:31;97647.09;;;17.42;39.27
66801;BME280;53703;50.326;19.122;2023-03-26T07:40:45;97642.06;;;17.37;39.55
66801;BME280;53703;50.326;19.122;2023-03-26T07:43:58;97651.64;;;17.40;39.30
66801;BME280;53703;50.326;19.122;2023-03-26T07:46:56;97652.41;;;17.39;39.53
66801;BME280;53703;50.326;19.122;2023-03-26T07:49:54;97653.19;;;17.39;39.62
66801;BME280;53703;50.326;19.122;2023-03-26T07:52:50;97657.40;;;17.45;39.62
66801;BME280;53703;50.326;19.122;2023-03-26T07:55:51;97654.70;;;17.44;39.84
66801;BME280;53703;50.326;19.122;2023-03-26T07:59:21;97653.02;;;17.47;39.41
66801;BME280;53703;50.326;19.122;2023-03-26T08:02:43;97653.99;;;17.40;39.69
66801;BME280;53703;50.326;19.122;2023-03-26T08:05:44;97658.31;;;17.44;39.63
66801;BME280;53703;50.326;19.122;2023-03-26T08:08:50;97661.25;;;17.45;39.76
66801;BME280;53703;50.326;19.122;2023-03-26T08:11:55;97658.93;;;17.48;39.50
66801;BME280;53703;50.326;19.122;2023-03-26T08:14:58;97656.62;;;17.41;39.70
66801;BME280;53703;50.326;19.122;2023-03-26T08:17:55;97655.23;;;17.53;39.51
66801;BME280;53703;50.326;19.122;2023-03-26T08:21:12;97655.14;;;17.52;39.57
66801;BME280;53703;50.326;19.122;2023-03-26T08:24:17;97651.27;;;17.47;40.32
66801;BME280;53703;50.326;19.122;2023-03-26T08:27:21;97651.80;;;16.94;40.87
66801;BME280;53703;50.326;19.122;2023-03-26T08:30:21;97644.21;;;17.77;40.06
66801;BME280;53703;50.326;19.122;2023-03-26T08:33:18;97641.38;;;18.38;39.00
66801;BME280;53703;50.326;19.122;2023-03-26T08:36:13;97644.02;;;18.34;39.05
66801;BME280;53703;50.326;19.122;2023-03-26T08:39:07;97640.45;;;16.81;44.70
66801;BME280;53703;50.326;19.122;2023-03-26T08:42:42;97643.23;;;16.27;47.73
66801;BME280;53703;50.326;19.122;2023-03-26T08:46:08;97640.60;;;16.06;45.96
66801;BME280;53703;50.326;19.122;2023-03-26T08:49:39;97637.11;;;16.41;43.92
66801;BME280;53703;50.326;19.122;2023-03-26T08:56:51;97632.53;;;18.10;40.53
66801;BME280;53703;50.326;19.122;2023-03-26T09:00:51;97634.95;;;18.19;40.16
66801;BME280;53703;50.326;19.122;2023-03-26T09:04:08;97623.79;;;18.24;39.75
66801;BME280;53703;50.326;19.122;2023-03-26T09:07:53;97627.79;;;17.47;39.91
66801;BME280;53703;50.326;19.122;2023-03-26T09:14:46;97620.06;;;17.69;40.49
66801;BME280;53703;50.326;19.122;2023-03-26T09:18:01;97616.45;;;17.75;40.12
66801;BME280;53703;50.326;19.122;2023-03-26T09:21:41;97615.16;;;17.74;40.29
66801;BME280;53703;50.326;19.122;2023-03-26T09:25:17;97611.48;;;17.70;40.36
66801;BME280;53703;50.326;19.122;2023-03-26T09:35:52;97623.59;;;17.74;39.93
66801;BME280;53703;50.326;19.122;2023-03-26T09:38:52;97634.55;;;17.63;40.08
66801;BME280;53703;50.326;19.122;2023-03-26T09:42:02;97636.02;;;17.49;40.53
66801;BME280;53703;50.326;19.122;2023-03-26T09:45:33;97634.42;;;17.69;40.15
66801;BME280;53703;50.326;19.122;2023-03-26T09:48:51;97630.52;;;17.73;40.40
66801;BME280;53703;50.326;19.122;2023-03-26T09:52:09;97628.60;;;17.70;40.68
66801;BME280;53703;50.326;19.122;2023-03-26T09:55:21;97623.05;;;17.75;41.04
66801;BME280;53703;50.326;19.122;2023-03-26T10:01:45;97610.48;;;17.72;41.65
66801;BME280;53703;50.326;19.122;2023-03-26T10:05:13;97609.85;;;17.90;41.04
66801;BME280;53703;50.326;19.122;2023-03-26T10:08:37;97607.56;;;17.65;41.77
66801;BME280;53703;50.326;19.122;2023-03-26T10:11:54;97608.73;;;16.15;44.56
66801;BME280;53703;50.326;19.122;2023-03-26T10:15:02;97608.02;;;15.59;45.84
66801;BME280;53703;50.326;19.122;2023-03-26T10:18:16;97611.02;;;17.11;42.91
66801;BME280;53703;50.326;19.122;2023-03-26T10:21:33;97611.44;;;17.19;43.13
66801;BME280;53703;50.326;19.122;2023-03-26T10:24:46;97612.35;;;17.32;42.69
66801;BME280;53703;50.326;19.122;2023-03-26T10:27:54;97610.98;;;17.52;41.95
66801;BME280;53703;50.326;19.122;2023-03-26T10:31:25;97607.64;;;17.49;41.85
66801;BME280;53703;50.326;19.122;2023-03-26T10:34:45;97607.73;;;17.67;42.54
66801;BME280;53703;50.326;19.122;2023-03-26T10:38:00;97598.14;;;17.69;41.82
66801;BME280;53703;50.326;19.122;2023-03-26T10:41:04;97599.56;;;17.64;41.97
66801;BME280;53703;50.326;19.122;2023-03-26T10:44:38;97597.86;;;17.66;41.74
66801;BME280;53703;50.326;19.122;2023-03-26T10:48:26;97595.33;;;17.60;41.71
66801;BME280;53703;50.326;19.122;2023-03-26T10:51:45;97594.77;;;17.53;42.26
66801;BME280;53703;50.326;19.122;2023-03-26T10:54:52;97593.14;;;17.55;42.01
66801;BME280;53703;50.326;19.122;2023-03-26T10:57:50;97592.14;;;17.45;42.76
66801;BME280;53703;50.326;19.122;2023-03-26T11:01:12;97588.93;;;17.47;42.62
66801;BME280;53703;50.326;19.122;2023-03-26T11:04:19;97581.39;;;17.43;42.45
66801;BME280;53703;50.326;19.122;2023-03-26T11:07:22;97575.88;;;17.43;42.20
66801;BME280;53703;50.326;19.122;2023-03-26T11:10:34;97567.11;;;17.60;41.72
66801;BME280;53703;50.326;19.122;2023-03-26T11:13:45;97562.52;;;17.58;41.14
66801;BME280;53703;50.326;19.122;2023-03-26T11:16:53;97560.89;;;17.54;42.14
66801;BME280;53703;50.326;19.122;2023-03-26T11:19:53;97555.17;;;17.62;41.84
66801;BME280;53703;50.326;19.122;2023-03-26T11:23:07;97555.86;;;17.60;41.86
66801;BME280;53703;50.326;19.122;2023-03-26T11:26:13;97551.46;;;17.56;41.92
66801;BME280;53703;50.326;19.122;2023-03-26T11:29:21;97549.45;;;17.48;42.16
66801;BME280;53703;50.326;19.122;2023-03-26T11:32:29;97544.10;;;17.60;41.42
66801;BME280;53703;50.326;19.122;2023-03-26T11:35:31;97539.71;;;17.55;41.68
66801;BME280;53703;50.326;19.122;2023-03-26T11:38:35;97542.24;;;17.56;41.54
66801;BME280;53703;50.326;19.122;2023-03-26T11:41:17;97538.63;;;17.63;41.45
66801;BME280;53703;50.326;19.122;2023-03-26T11:44:24;97533.02;;;17.62;41.34
66801;BME280;53703;50.326;19.122;2023-03-26T11:47:22;97535.44;;;17.67;41.20
66801;BME280;53703;50.326;19.122;2023-03-26T11:50:15;97529.88;;;17.69;41.13
66801;BME280;53703;50.326;19.122;2023-03-26T11:53:15;97525.48;;;17.72;41.11
66801;BME280;53703;50.326;19.122;2023-03-26T11:56:07;97526.95;;;17.69;41.04
66801;BME280;53703;50.326;19.122;2023-03-26T11:59:27;97521.84;;;17.64;40.90
66801;BME280;53703;50.326;19.122;2023-03-26T12:02:29;97517.97;;;17.62;40.88
66801;BME280;53703;50.326;19.122;2023-03-26T12:05:27;97515.45;;;17.70;40.74
66801;BME280;53703;50.326;19.122;2023-03-26T12:08:39;97516.42;;;17.66;40.90
66801;BME280;53703;50.326;19.122;2023-03-26T12:11:38;97512.98;;;17.60;40.72
66801;BME280;53703;50.326;19.122;2023-03-26T12:14:35;97512.30;;;17.57;40.85
66801;BME280;53703;50.326;19.122;2023-03-26T12:17:36;97506.17;;;17.59;40.65
66801;BME280;53703;50.326;19.122;2023-03-26T12:20:36;97503.88;;;17.58;40.71
66801;BME280;53703;50.326;19.122;2023-03-26T12:23:50;97494.96;;;17.63;40.89
66801;BME280;53703;50.326;19.122;2023-03-26T12:26:49;97489.62;;;17.71;40.78
66801;BME280;53703;50.326;19.122;2023-03-26T12:29:52;97485.27;;;17.83;40.50
66801;BME280;53703;50.326;19.122;2023-03-26T12:32:55;97477.97;;;17.66;40.52
66801;BME280;53703;50.326;19.122;2023-03-26T12:39:27;97467.12;;;17.56;40.74
66801;BME280;53703;50.326;19.122;2023-03-26T12:42:52;97458.56;;;17.57;40.67
66801;BME280;53703;50.326;19.122;2023-03-26T12:46:24;97451.69;;;17.57;40.84
66801;BME280;53703;50.326;19.122;2023-03-26T12:49:39;97447.98;;;17.56;40.64
66801;BME280;53703;50.326;19.122;2023-03-26T12:52:55;97438.68;;;17.63;40.62
66801;BME280;53703;50.326;19.122;2023-03-26T12:56:00;97435.16;;;17.65;39.94
66801;BME280;53703;50.326;19.122;2023-03-26T12:59:27;97435.27;;;17.69;40.22
66801;BME280;53703;50.326;19.122;2023-03-26T13:06:26;97425.52;;;17.57;40.39
66801;BME280;53703;50.326;19.122;2023-03-26T13:10:32;97427.17;;;17.56;40.12
66801;BME280;53703;50.326;19.122;2023-03-26T13:13:56;97425.89;;;17.62;40.08
66801;BME280;53703;50.326;19.122;2023-03-26T13:16:57;97417.89;;;17.65;40.56
66801;BME280;53703;50.326;19.122;2023-03-26T13:20:02;97419.58;;;17.75;40.34
66801;BME280;53703;50.326;19.122;2023-03-26T13:23:04;97413.65;;;17.75;39.28
66801;BME280;53703;50.326;19.122;2023-03-26T13:26:07;97408.90;;;17.88;39.27
66801;BME280;53703;50.326;19.122;2023-03-26T13:29:27;97409.52;;;17.79;39.08
66801;BME280;53703;50.326;19.122;2023-03-26T13:32:35;97409.06;;;17.66;38.70
66801;BME280;53703;50.326;19.122;2023-03-26T13:35:39;97407.98;;;17.59;38.41
66801;BME280;53703;50.326;19.122;2023-03-26T13:38:46;97403.69;;;17.57;39.31
66801;BME280;53703;50.326;19.122;2023-03-26T13:42:20;97402.34;;;17.55;40.02
66801;BME280;53703;50.326;19.122;2023-03-26T13:45:45;97403.83;;;17.49;39.52
66801;BME280;53703;50.326;19.122;2023-03-26T13:48:47;97397.27;;;17.54;38.87
66801;BME280;53703;50.326;19.122;2023-03-26T13:51:49;97398.72;;;17.56;38.07
66801;BME280;53703;50.326;19.122;2023-03-26T13:54:48;97398.92;;;17.61;38.97
66801;BME280;53703;50.326;19.122;2023-03-26T13:57:47;97399.11;;;17.56;38.45
66801;BME280;53703;50.326;19.122;2023-03-26T14:00:58;97397.27;;;17.46;38.46
66801;BME280;53703;50.326;19.122;2023-03-26T14:04:01;97398.18;;;17.50;39.52
66801;BME280;53703;50.326;19.122;2023-03-26T14:07:02;97391.65;;;17.51;39.53
66801;BME280;53703;50.326;19.122;2023-03-26T14:10:02;97393.96;;;17.54;39.61
66801;BME280;53703;50.326;19.122;2023-03-26T14:13:02;97386.98;;;17.48;39.75
66801;BME280;53703;50.326;19.122;2023-03-26T14:16:05;97390.87;;;17.44;38.73
66801;BME280;53703;50.326;19.122;2023-03-26T14:19:24;97387.32;;;17.44;39.14
66801;BME280;53703;50.326;19.122;2023-03-26T14:22:34;97389.58;;;17.50;39.49
66801;BME280;53703;50.326;19.122;2023-03-26T14:25:44;97386.33;;;17.54;38.80
66801;BME280;53703;50.326;19.122;2023-03-26T14:29:16;97384.33;;;17.44;38.15
66801;BME280;53703;50.326;19.122;2023-03-26T14:32:48;97379.80;;;17.35;37.96
66801;BME280;53703;50.326;19.122;2023-03-26T14:35:53;97377.39;;;17.44;38.42
66801;BME280;53703;50.326;19.122;2023-03-26T14:42:42;97370.75;;;17.49;38.44
66801;BME280;53703;50.326;19.122;2023-03-26T14:45:55;97367.63;;;17.68;38.52
66801;BME280;53703;50.326;19.122;2023-03-26T14:49:06;97364.21;;;17.57;38.68
66801;BME280;53703;50.326;19.122;2023-03-26T14:52:10;97364.53;;;17.51;38.93
66801;BME280;53703;50.326;19.122;2023-03-26T14:55:15;97363.95;;;17.57;39.58
66801;BME280;53703;50.326;19.122;2023-03-26T15:06:19;97356.99;;;17.53;40.20
66801;BME280;53703;50.326;19.122;2023-03-26T15:10:00;97348.17;;;17.45;39.99
66801;BME280;53703;50.326;19.122;2023-03-26T15:13:32;97341.79;;;17.38;40.11
66801;BME280;53703;50.326;19.122;2023-03-26T15:17:12;97338.02;;;17.39;40.51
66801;BME280;53703;50.326;19.122;2023-03-26T15:20:58;97341.39;;;17.37;40.06
66801;BME280;53703;50.326;19.122;2023-03-26T15:24:43;97340.86;;;17.40;40.46
66801;BME280;53703;50.326;19.122;2023-03-26T15:28:19;97338.75;;;17.42;40.76
66801;BME280;53703;50.326;19.122;2023-03-26T15:31:39;97339.48;;;17.44;40.77
66801;BME280;53703;50.326;19.122;2023-03-26T15:35:11;97336.71;;;17.43;40.83
66801;BME280;53703;50.326;19.122;2023-03-26T15:39:15;97332.78;;;17.43;40.90
66801;BME280;53703;50.326;19.122;2023-03-26T15:42:26;97329.23;;;17.41;41.07
66801;BME280;53703;50.326;19.122;2023-03-26T15:45:36;97330.56;;;17.41;41.24
66801;BME280;53703;50.326;19.122;2023-03-26T15:48:49;97332.70;;;17.44;41.28
66801;BME280;53703;50.326;19.122;2023-03-26T15:51:54;97331.96;;;17.48;41.17
66801;BME280;53703;50.326;19.122;2023-03-26T15:54:58;97328.38;;;17.51;41.42
66801;BME280;53703;50.326;19.122;2023-03-26T15:58:01;97328.27;;;17.48;41.73
66801;BME280;53703;50.326;19.122;2023-03-26T16:01:10;97329.02;;;17.60;41.55
66801;BME280;53703;50.326;19.122;2023-03-26T16:04:28;97322.77;;;17.86;41.00
66801;BME280;53703;50.326;19.122;2023-03-26T16:07:38;97321.40;;;17.91;40.98
66801;BME280;53703;50.326;19.122;2023-03-26T16:10:47;97319.67;;;17.91;41.00
66801;BME280;53703;50.326;19.122;2023-03-26T16:13:49;97318.41;;;17.93;41.16
66801;BME280;53703;50.326;19.122;2023-03-26T16:17:02;97319.06;;;17.94;41.11
66801;BME280;53703;50.326;19.122;2023-03-26T16:20:19;97315.04;;;17.93;41.09
66801;BME280;53703;50.326;19.122;2023-03-26T16:23:28;97314.58;;;17.95;41.22
66801;BME280;53703;50.326;19.122;2023-03-26T16:27:00;97311.52;;;17.97;41.23
66801;BME280;53703;50.326;19.122;2023-03-26T16:30:15;97314.30;;;18.00;41.22
66801;BME280;53703;50.326;19.122;2023-03-26T16:33:20;97312.34;;;18.01;41.19
66801;BME280;53703;50.326;19.122;2023-03-26T16:36:32;97310.21;;;18.02;41.24
66801;BME280;53703;50.326;19.122;2023-03-26T16:39:42;97311.80;;;18.03;41.30
66801;BME280;53703;50.326;19.122;2023-03-26T16:42:39;97307.30;;;18.04;41.28